X  Close Metar Aviation Weather Data     CYYC Calgary International Airport
Temperature
3°C Temperature
-5°C Dewpoint
56% Humidity



Wind
19 KM/H
12 MPH
5 M/S
10 KTS



290°
WNW
Current Conditions

Partly Cloudy Partly Cloudy
Pressure 989.52 (hPa) - 29.22 (inHg)
Visibility 14.9 (mile) - 24 (km)
Airport
Airport-code CYYC

Location: Calgary International Airport
Distance: 4 (km)

Metar:
CYYC 081100Z 29010G16KT 15SM FEW180 FEW240 03/M05 A2922 RMK AC1CI1 AC TR PRESFR SLP934 DENSITY ALT 3900FT

Time: 08-12-2021 04:00 MST